Salt Lake City, UT

4:41 AM MST en Febrero 01, 2015 (GMT -0700)
Central Ninth | Change Station
CLOSE
Current Station
Estación meteorológica personal
Location: Salt Lake City, UT
Altura: 4245 ft
Estaciones meteorológicas cercanas

Alt 4245 ft 40.75 °N, 111.89 °W | Updated 15 minutes ago

Despejado
Despejado
27.0 ° F
Sensación térmica 27 ° F
N
0.0
Viento Variable Viento desde SSE

Hoy
Alta -- | Baja -- ° F
--% Posibilidad de precipitaciones
Ayer
Alta -- | Baja -- ° F
Precip. -- pul
7:37 AM 5:45 PM
Gibosa creciente, 94% visible
Presión 30.20 pul
Visibilidad 10.0 Millas
Nubes Despejado
Vientos helados 27 ° F
Punto de rocío 23 ° F
Humedad 86%
Precipitaciones 0.00 pul
Espesor de la nieve No disponible.
UV 0 de una escala de 12
Polen .10 de una escala de 12
Calidad del aire No disponible.
Flu Activity No disponible.
METAR KSLC 011053Z 14005KT 10SM CLR M02/M04 A3019 RMK AO2 SLP227 T10221044

More Conditions Fewer Conditions

Presión 30.20 pul
Visibilidad 10.0 Millas
Nubes Despejado
Vientos helados 27 ° F
Punto de rocío 23 ° F
Humedad 86%
Precipitaciones 0.00 pul
Espesor de la nieve No disponible.
UV 0 de una escala de 12
Polen .10 de una escala de 12
Calidad del aire No disponible.
Flu Activity No disponible.
METAR KSLC 011053Z 14005KT 10SM CLR M02/M04 A3019 RMK AO2 SLP227 T10221044

More Conditions Fewer Conditions

10-Day Weather Forecast

Almanac

Astronomía

Feb. 01, 2015 Salida Puesta
Hora real
Crepúsculo civil
Crepúsculo náutico
Crepúsculo astronómico
Luna
Horas de luz
Horas de luz
Tomorrow will be .
, % of the Moon is Illuminated

Extremos de hoy

Máximos del estado Bajos del estado

Community

WunderPhotos

Upload Photos

1,792,346 ¡fotos cargadas!

WunderBlogs® & News

Nearby

Calidad del aire

  Calidad del aire Índice AQ Contaminante
Not available.

Grosos de nieve

Estación Profundido Altura

Actividad de terremotos

Ciudad Distance Mag. Tiempo y dato
Magnitud mínima muestra es 2,5.

Temperaturas de aguas costeras

Lugar Temperatura

Estaciones meteorológicas cercanas